Time;durP1;ratioP1;P1;durP2;ratioP2;P2;SDS_P1;SDS_P2;PMS_P1;PMS_P2;Temp;Humidity;BMP_temperature;BMP_pressure;BME280_temperature;BME280_humidity;BME280_pressure;Samples;Min_cycle;Max_cycle;Signal;HPM_P1;HPM_P2
2022/05/02 00:01:33;;;;;;;27.02;16.17;;;5.20;99.90;;;;;;4972969;28;20211;-85
2022/05/02 00:03:58;;;;;;;25.17;16.08;;;5.20;99.90;;;;;;4991253;28;20126;-85
2022/05/02 00:06:24;;;;;;;28.10;16.58;;;5.20;99.90;;;;;;4989575;28;20030;-86
2022/05/02 00:08:50;;;;;;;25.85;15.13;;;5.10;99.90;;;;;;4986500;28;20042;-85
2022/05/02 00:11:15;;;;;;;23.63;15.88;;;5.10;99.90;;;;;;5003769;28;20323;-85
2022/05/02 00:13:41;;;;;;;25.77;15.45;;;5.00;99.90;;;;;;5006312;28;20501;-85
2022/05/02 00:16:08;;;;;;;28.17;16.55;;;5.00;99.90;;;;;;5004870;28;20052;-86
2022/05/02 00:18:33;;;;;;;30.52;18.60;;;5.00;99.90;;;;;;4975526;28;20390;-85
2022/05/02 00:20:59;;;;;;;26.73;17.23;;;5.00;99.90;;;;;;4992422;28;20042;-85
2022/05/02 00:23:26;;;;;;;26.17;16.25;;;5.10;99.90;;;;;;4991642;28;20117;-85
2022/05/02 00:25:51;;;;;;;29.90;18.40;;;5.00;99.90;;;;;;5008501;28;20489;-86
2022/05/02 00:28:17;;;;;;;27.20;15.30;;;5.00;99.90;;;;;;4995697;28;20042;-84
2022/05/02 00:30:43;;;;;;;26.65;15.75;;;5.00;99.90;;;;;;5005637;28;20050;-85
2022/05/02 00:33:09;;;;;;;30.48;16.25;;;4.80;99.90;;;;;;4986575;28;20429;-85
2022/05/02 00:35:35;;;;;;;31.92;17.98;;;4.80;99.90;;;;;;4986674;28;20037;-85
2022/05/02 00:38:01;;;;;;;29.00;16.63;;;4.80;99.90;;;;;;4987718;28;20026;-85
2022/05/02 00:40:26;;;;;;;27.17;16.45;;;4.80;99.90;;;;;;4989894;28;20623;-85
2022/05/02 00:42:52;;;;;;;26.35;17.27;;;4.80;99.90;;;;;;4989952;28;20014;-85
2022/05/02 00:45:20;;;;;;;29.15;17.75;;;4.70;99.90;;;;;;4989936;28;20109;-85
2022/05/02 00:47:57;;;;;;;30.80;16.38;;;4.70;99.90;;;;;;4990772;28;20034;-85
2022/05/02 00:50:35;;;;;;;28.38;16.98;;;4.70;99.90;;;;;;4990597;28;20042;-85
2022/05/02 00:53:04;;;;;;;27.92;16.80;;;4.70;99.90;;;;;;5004277;28;20359;-85
2022/05/02 00:55:30;;;;;;;29.35;17.17;;;4.60;99.90;;;;;;4983694;28;20034;-85
2022/05/02 00:57:59;;;;;;;24.67;15.90;;;4.60;99.90;;;;;;4990940;28;20068;-85
2022/05/02 01:00:25;;;;;;;30.27;17.23;;;4.60;99.90;;;;;;4988536;28;20054;-84
2022/05/02 01:02:51;;;;;;;26.08;16.05;;;4.50;99.90;;;;;;4988936;28;20034;-84
2022/05/02 01:05:17;;;;;;;27.95;17.52;;;4.50;99.90;;;;;;4980700;28;20386;-84
2022/05/02 01:07:45;;;;;;;28.33;17.55;;;4.50;99.90;;;;;;4987691;28;20031;-84
2022/05/02 01:10:16;;;;;;;30.05;17.05;;;4.50;99.90;;;;;;4989243;28;20038;-84
2022/05/02 01:12:46;;;;;;;26.88;16.90;;;4.60;99.90;;;;;;4973345;28;20034;-84
2022/05/02 01:15:12;;;;;;;32.22;16.95;;;4.60;99.90;;;;;;4987659;28;20037;-84
2022/05/02 01:17:38;;;;;;;27.75;16.58;;;4.50;99.90;;;;;;4987420;28;20153;-84
2022/05/02 01:20:11;;;;;;;29.48;17.08;;;4.50;99.90;;;;;;4984791;28;20042;-83
2022/05/02 01:22:37;;;;;;;28.23;17.60;;;4.30;99.90;;;;;;5004049;28;20053;-84
2022/05/02 01:25:03;;;;;;;25.63;15.55;;;4.40;99.90;;;;;;4988532;28;20494;-84
2022/05/02 01:27:29;;;;;;;26.63;16.02;;;4.30;99.90;;;;;;4989304;28;20108;-84
2022/05/02 01:29:55;;;;;;;26.10;15.77;;;4.40;99.90;;;;;;4990550;28;20030;-84
2022/05/02 01:32:20;;;;;;;28.58;16.67;;;4.30;99.90;;;;;;4970474;28;20038;-84
2022/05/02 01:34:46;;;;;;;30.75;18.17;;;4.30;99.90;;;;;;4988058;28;20053;-84
2022/05/02 01:37:13;;;;;;;93.50;53.05;;;4.20;99.90;;;;;;4989291;28;20116;-84
2022/05/02 01:39:39;;;;;;;35.60;22.73;;;4.10;99.90;;;;;;4990855;28;20027;-84
2022/05/02 01:42:07;;;;;;;29.92;18.48;;;4.00;99.90;;;;;;4993074;28;20023;-84
2022/05/02 01:44:34;;;;;;;30.27;17.05;;;4.00;99.90;;;;;;4991770;28;20369;-84
2022/05/02 01:47:00;;;;;;;31.38;17.90;;;4.00;99.90;;;;;;4993441;28;20027;-83
2022/05/02 01:49:26;;;;;;;34.72;20.02;;;4.00;99.90;;;;;;4982843;28;20046;-83
2022/05/02 01:51:53;;;;;;;31.55;18.25;;;4.10;99.90;;;;;;4984455;28;20097;-83
2022/05/02 01:54:18;;;;;;;39.05;20.45;;;4.10;99.90;;;;;;4974271;28;20034;-84
2022/05/02 01:56:44;;;;;;;31.52;20.27;;;4.10;99.90;;;;;;4988853;28;20038;-84
2022/05/02 01:59:11;;;;;;;38.38;21.38;;;4.20;99.90;;;;;;4997648;28;20047;-84
2022/05/02 02:01:37;;;;;;;40.45;22.05;;;4.20;99.90;;;;;;4987415;28;20073;-83
2022/05/02 02:06:51;;;;;;;37.63;21.73;;;4.30;99.90;;;;;;4964108;28;20101;-84
2022/05/02 02:09:17;;;;;;;34.17;20.27;;;4.20;99.90;;;;;;4989999;28;20108;-84
2022/05/02 02:11:43;;;;;;;32.50;18.10;;;4.20;99.90;;;;;;4987814;28;20482;-84
2022/05/02 02:14:09;;;;;;;30.98;16.65;;;4.10;99.90;;;;;;4989328;28;20034;-83
2022/05/02 02:16:34;;;;;;;28.55;16.45;;;4.00;99.90;;;;;;4988132;28;20080;-84
2022/05/02 02:19:00;;;;;;;26.42;17.25;;;3.90;99.90;;;;;;4987987;28;20029;-84
2022/05/02 02:21:26;;;;;;;35.78;19.08;;;3.80;99.90;;;;;;4989307;28;20054;-84
2022/05/02 02:23:53;;;;;;;39.03;21.10;;;3.80;99.90;;;;;;5004777;28;20050;-84
2022/05/02 02:26:18;;;;;;;38.80;22.42;;;3.90;99.90;;;;;;4983349;28;20023;-83
2022/05/02 02:28:44;;;;;;;33.72;19.38;;;3.90;99.90;;;;;;4968684;28;20089;-84
2022/05/02 02:31:10;;;;;;;36.58;19.42;;;3.90;99.90;;;;;;4987547;28;20053;-84
2022/05/02 02:33:37;;;;;;;29.83;18.13;;;3.90;99.90;;;;;;4987991;28;20125;-83
2022/05/02 02:36:03;;;;;;;32.35;16.65;;;3.80;99.90;;;;;;4988458;28;20029;-83
2022/05/02 02:38:29;;;;;;;34.00;19.23;;;3.70;99.90;;;;;;4988795;28;20142;-83
2022/05/02 02:40:55;;;;;;;28.75;16.20;;;3.70;99.90;;;;;;4983268;28;20612;-83
2022/05/02 02:43:20;;;;;;;32.25;19.17;;;3.70;99.90;;;;;;4989235;28;20053;-84
2022/05/02 02:45:46;;;;;;;29.60;16.88;;;3.70;99.90;;;;;;5004075;28;20042;-84
2022/05/02 02:48:12;;;;;;;35.22;19.63;;;3.70;99.90;;;;;;4978589;28;20022;-84
2022/05/02 02:50:38;;;;;;;36.92;20.75;;;3.70;99.90;;;;;;4992333;28;20442;-84
2022/05/02 02:53:04;;;;;;;33.13;18.90;;;3.70;99.90;;;;;;4978132;28;20257;-83
2022/05/02 02:55:30;;;;;;;38.90;20.92;;;3.70;99.90;;;;;;4982599;28;20062;-84
2022/05/02 02:57:55;;;;;;;32.92;21.40;;;3.60;99.90;;;;;;4990073;28;20125;-83
2022/05/02 03:00:22;;;;;;;31.55;17.55;;;3.60;99.90;;;;;;4978420;28;20062;-83
2022/05/02 03:02:49;;;;;;;34.75;20.15;;;3.70;99.90;;;;;;4987758;28;20026;-84
2022/05/02 03:07:59;;;;;;;38.13;21.13;;;3.50;99.90;;;;;;4993138;28;20053;-84
2022/05/02 03:10:28;;;;;;;35.75;20.63;;;3.30;99.90;;;;;;4991617;28;20034;-83
2022/05/02 03:12:54;;;;;;;35.13;20.30;;;3.40;99.90;;;;;;4982409;28;20121;-83
2022/05/02 03:15:21;;;;;;;35.10;18.88;;;3.50;99.90;;;;;;4984029;28;20068;-83
2022/05/02 03:17:47;;;;;;;37.33;20.08;;;3.50;99.90;;;;;;4975011;28;20478;-83
2022/05/02 03:20:13;;;;;;;35.22;18.05;;;3.50;99.90;;;;;;4990981;28;20113;-84
2022/05/02 03:22:38;;;;;;;32.97;18.27;;;3.50;99.90;;;;;;4974706;28;20117;-83
2022/05/02 03:25:05;;;;;;;33.42;19.27;;;3.40;99.90;;;;;;4987060;28;20057;-83
2022/05/02 03:27:30;;;;;;;34.22;19.05;;;3.20;99.90;;;;;;4975288;28;20037;-83
2022/05/02 03:29:56;;;;;;;32.38;20.42;;;3.20;99.90;;;;;;4991109;28;20343;-83
2022/05/02 03:32:22;;;;;;;37.78;21.20;;;3.30;99.90;;;;;;4991592;28;20093;-83
2022/05/02 03:34:47;;;;;;;38.33;22.42;;;3.40;99.90;;;;;;4980225;28;20096;-83
2022/05/02 03:37:14;;;;;;;35.60;18.92;;;3.40;99.90;;;;;;4990497;28;20032;-83
2022/05/02 03:39:39;;;;;;;38.20;21.42;;;3.40;99.90;;;;;;4989660;28;20092;-83
2022/05/02 03:42:06;;;;;;;38.63;21.80;;;3.40;99.90;;;;;;4991251;28;20030;-84
2022/05/02 03:44:31;;;;;;;36.22;21.27;;;3.40;99.90;;;;;;4990138;28;20110;-84
2022/05/02 03:46:57;;;;;;;36.55;22.13;;;3.30;99.90;;;;;;4988031;28;20121;-83
2022/05/02 03:49:23;;;;;;;41.78;21.77;;;2.90;99.90;;;;;;4961128;28;20532;-84
2022/05/02 03:51:48;;;;;;;41.65;23.33;;;3.10;99.90;;;;;;4978376;28;20071;-84
2022/05/02 03:54:14;;;;;;;42.70;23.70;;;3.10;99.90;;;;;;4965063;28;20096;-84
2022/05/02 03:56:40;;;;;;;36.78;22.05;;;3.20;99.90;;;;;;4995550;28;20061;-84
2022/05/02 03:59:05;;;;;;;43.20;23.77;;;3.20;99.90;;;;;;4990240;28;20023;-84
2022/05/02 04:01:36;;;;;;;41.25;22.60;;;3.20;99.90;;;;;;4982504;28;20050;-84
2022/05/02 04:04:02;;;;;;;39.97;21.73;;;3.20;99.90;;;;;;5002771;28;20026;-84
2022/05/02 04:06:28;;;;;;;44.17;22.85;;;3.30;99.90;;;;;;4957736;28;20053;-83
2022/05/02 04:08:53;;;;;;;40.95;21.55;;;3.20;99.90;;;;;;4970458;28;20065;-84
2022/05/02 04:11:19;;;;;;;41.08;24.80;;;3.30;99.90;;;;;;4989543;28;20034;-84
2022/05/02 04:13:44;;;;;;;38.95;23.88;;;3.30;99.90;;;;;;4990264;28;20087;-84
2022/05/02 04:16:10;;;;;;;38.03;22.80;;;3.30;99.90;;;;;;4990421;28;20043;-84
2022/05/02 04:18:36;;;;;;;49.17;22.95;;;3.30;99.90;;;;;;4973019;28;20030;-83
2022/05/02 04:21:01;;;;;;;36.25;21.05;;;3.30;99.90;;;;;;4991399;28;20027;-84
2022/05/02 04:23:27;;;;;;;45.05;25.48;;;3.40;99.90;;;;;;4991640;28;20038;-84
2022/05/02 04:25:53;;;;;;;45.33;24.65;;;3.30;99.90;;;;;;4989915;28;20030;-84
2022/05/02 04:28:18;;;;;;;44.42;23.90;;;3.30;99.90;;;;;;4957386;28;20389;-84
2022/05/02 04:30:44;;;;;;;40.70;22.42;;;3.40;99.90;;;;;;4975483;28;20482;-83
2022/05/02 04:33:09;;;;;;;37.42;22.10;;;3.40;99.90;;;;;;4990815;28;20034;-84
2022/05/02 04:35:35;;;;;;;43.28;24.38;;;3.50;99.90;;;;;;4990724;28;20037;-83
2022/05/02 04:38:03;;;;;;;39.83;23.55;;;3.50;99.90;;;;;;4990846;28;20041;-84
2022/05/02 04:40:29;;;;;;;43.70;26.17;;;3.60;99.90;;;;;;4989732;28;20042;-84
2022/05/02 04:42:54;;;;;;;41.35;21.88;;;3.60;99.90;;;;;;4990013;28;20285;-85
2022/05/02 04:45:20;;;;;;;39.47;22.33;;;3.70;99.90;;;;;;4993255;28;20502;-83
2022/05/02 04:47:46;;;;;;;48.78;24.73;;;3.80;99.90;;;;;;4974023;28;20092;-84
2022/05/02 04:50:11;;;;;;;47.88;25.33;;;3.80;99.90;;;;;;4988718;28;20524;-84
2022/05/02 04:52:37;;;;;;;39.70;24.08;;;3.90;99.90;;;;;;5008979;28;20041;-85
2022/05/02 04:55:03;;;;;;;43.65;25.38;;;4.00;99.90;;;;;;4987117;28;20028;-87
2022/05/02 04:57:29;;;;;;;44.92;24.95;;;4.10;99.90;;;;;;4992339;28;20030;-86
2022/05/02 04:59:55;;;;;;;43.17;25.58;;;4.20;99.90;;;;;;4976517;28;20125;-86
2022/05/02 05:02:21;;;;;;;40.25;24.45;;;4.30;99.90;;;;;;4989672;28;20122;-86
2022/05/02 05:04:46;;;;;;;43.63;24.35;;;4.40;99.90;;;;;;4974174;28;20034;-85
2022/05/02 05:07:12;;;;;;;42.08;24.00;;;4.50;99.90;;;;;;4987379;28;20038;-85
2022/05/02 05:09:38;;;;;;;47.47;25.58;;;4.60;99.90;;;;;;4996647;28;20036;-82
2022/05/02 05:12:25;;;;;;;38.20;21.85;;;4.70;99.90;;;;;;4984456;28;20039;-83
2022/05/02 05:18:15;;;;;;;48.30;22.70;;;5.10;99.90;;;;;;4978435;28;20065;-83
2022/05/02 05:20:56;;;;;;;41.53;22.33;;;5.20;99.90;;;;;;5003482;28;20172;-83
2022/05/02 05:23:46;;;;;;;46.45;24.35;;;5.30;99.90;;;;;;4988005;28;20739;-83
2022/05/02 05:26:29;;;;;;;40.03;22.70;;;5.50;99.90;;;;;;4987363;28;20029;-83
2022/05/02 05:28:59;;;;;;;38.42;22.73;;;5.70;99.90;;;;;;5005027;28;20477;-83
2022/05/02 05:31:38;;;;;;;42.80;26.63;;;5.80;99.90;;;;;;4981005;28;20042;-83
2022/05/02 05:34:04;;;;;;;44.95;24.60;;;5.80;99.90;;;;;;4987905;28;20062;-83
2022/05/02 05:37:03;;;;;;;41.67;24.77;;;5.90;99.90;;;;;;4989692;28;20054;-82
2022/05/02 05:39:45;;;;;;;39.50;23.38;;;6.10;99.90;;;;;;4988319;28;20030;-83
2022/05/02 05:42:28;;;;;;;40.78;24.02;;;6.20;99.90;;;;;;4986982;28;20022;-83
2022/05/02 05:45:16;;;;;;;41.72;25.42;;;6.30;99.90;;;;;;5000851;28;20038;-82
2022/05/02 05:47:53;;;;;;;44.00;23.38;;;6.30;99.90;;;;;;4984421;28;20477;-83
2022/05/02 05:50:27;;;;;;;37.80;22.90;;;6.40;99.90;;;;;;4989008;28;20077;-82
2022/05/02 05:53:19;;;;;;;44.30;26.23;;;6.40;99.90;;;;;;4989889;28;20153;-83
2022/05/02 05:56:18;;;;;;;37.10;23.23;;;6.50;99.90;;;;;;4983740;28;20095;-82
2022/05/02 05:59:10;;;;;;;38.25;25.23;;;6.60;99.90;;;;;;4993644;28;20046;-82
2022/05/02 06:01:50;;;;;;;38.38;23.85;;;6.70;99.90;;;;;;4991435;28;20038;-82
2022/05/02 06:04:17;;;;;;;40.08;23.90;;;6.80;99.90;;;;;;5005183;28;20026;-82
2022/05/02 06:06:44;;;;;;;48.17;26.10;;;6.90;99.90;;;;;;4989840;28;20045;-82
2022/05/02 06:09:13;;;;;;;47.38;25.75;;;6.90;99.90;;;;;;4989005;28;20035;-81
2022/05/02 06:11:40;;;;;;;45.60;25.98;;;7.00;99.90;;;;;;4954929;28;20398;-81
2022/05/02 06:14:06;;;;;;;45.58;26.17;;;7.10;99.90;;;;;;4972688;28;20034;-81
2022/05/02 06:19:28;;;;;;;46.00;26.20;;;7.20;99.90;;;;;;4989726;28;20504;-82
2022/05/02 06:21:55;;;;;;;49.63;26.83;;;7.50;99.90;;;;;;5002139;28;20027;-81
2022/05/02 06:24:25;;;;;;;46.08;25.48;;;7.40;99.90;;;;;;4985531;28;21831;-81
2022/05/02 06:26:52;;;;;;;43.97;24.20;;;7.60;99.90;;;;;;4986447;28;20037;-81
2022/05/02 06:29:20;;;;;;;45.95;27.52;;;7.80;99.90;;;;;;4988705;28;20508;-82
2022/05/02 06:31:49;;;;;;;38.42;26.00;;;7.80;99.90;;;;;;5005029;28;20413;-82
2022/05/02 06:34:18;;;;;;;44.40;24.10;;;8.00;99.90;;;;;;4992043;28;20052;-83
2022/05/02 06:37:21;;;;;;;46.72;25.98;;;7.90;99.90;;;;;;4991729;28;20038;-83
2022/05/02 06:40:01;;;;;;;48.10;26.05;;;7.90;99.90;;;;;;4992124;28;20030;-83
2022/05/02 06:42:35;;;;;;;43.97;25.02;;;8.10;99.90;;;;;;4989704;28;20038;-83
2022/05/02 06:45:29;;;;;;;53.35;28.08;;;8.20;99.90;;;;;;4993287;28;20053;-82
2022/05/02 06:48:15;;;;;;;43.58;25.83;;;8.30;99.90;;;;;;4983570;28;20469;-83
2022/05/02 06:50:47;;;;;;;45.38;24.30;;;8.50;99.90;;;;;;4990629;28;20462;-83
2022/05/02 06:53:18;;;;;;;46.10;25.88;;;8.50;99.90;;;;;;4994007;28;20033;-83
2022/05/02 06:56:08;;;;;;;46.13;25.67;;;8.60;99.90;;;;;;4992823;28;20179;-82
2022/05/02 06:59:15;;;;;;;42.30;25.40;;;8.70;99.90;;;;;;4990809;28;20062;-83
2022/05/02 07:01:48;;;;;;;49.95;26.70;;;8.70;99.90;;;;;;4972730;28;20027;-82
2022/05/02 07:04:33;;;;;;;50.67;31.48;;;8.90;99.90;;;;;;4987188;28;20049;-82
2022/05/02 07:07:10;;;;;;;48.67;27.20;;;9.20;99.90;;;;;;4981871;28;20077;-82
2022/05/02 07:09:48;;;;;;;47.20;26.67;;;9.40;99.90;;;;;;4992214;28;20246;-83
2022/05/02 07:12:18;;;;;;;46.05;25.80;;;9.60;99.90;;;;;;5007930;28;20034;-82
2022/05/02 07:14:43;;;;;;;46.45;27.27;;;9.70;99.90;;;;;;4992710;28;20109;-83
2022/05/02 07:17:27;;;;;;;48.85;28.88;;;9.90;99.90;;;;;;4986322;28;20125;-83
2022/05/02 07:20:03;;;;;;;44.38;26.83;;;9.80;99.90;;;;;;4999421;28;20541;-84
2022/05/02 07:22:39;;;;;;;54.05;30.17;;;10.00;99.90;;;;;;4973911;28;20114;-84
2022/05/02 07:25:13;;;;;;;49.15;27.17;;;9.90;99.90;;;;;;4992403;28;20026;-83
2022/05/02 07:28:29;;;;;;;47.45;28.27;;;10.10;99.90;;;;;;4991285;28;20038;-83
2022/05/02 07:30:58;;;;;;;50.35;27.20;;;10.40;99.90;;;;;;4934380;29;20043;-82
2022/05/02 07:33:30;;;;;;;46.30;24.55;;;10.50;99.90;;;;;;4986035;28;20509;-82
2022/05/02 07:36:01;;;;;;;47.90;25.75;;;10.40;99.90;;;;;;4980385;28;20351;-82
2022/05/02 07:38:30;;;;;;;41.22;26.02;;;10.60;99.90;;;;;;4974335;28;20486;-84
2022/05/02 07:43:49;;;;;;;46.53;25.10;;;10.90;99.90;;;;;;5009921;28;20488;-88
2022/05/02 07:46:23;;;;;;;55.55;31.38;;;11.10;99.90;;;;;;4997817;28;20151;-88
2022/05/02 07:48:51;;;;;;;51.17;30.35;;;11.00;99.90;;;;;;4998855;28;20416;-88
2022/05/02 07:51:19;;;;;;;51.17;25.52;;;11.20;99.90;;;;;;4998152;28;20057;-89
2022/05/02 07:53:46;;;;;;;53.72;29.30;;;11.30;99.90;;;;;;4997350;28;20034;-89
2022/05/02 07:56:14;;;;;;;47.17;27.25;;;11.60;99.90;;;;;;4962798;28;20122;-89
2022/05/02 07:58:41;;;;;;;53.83;28.63;;;11.80;99.90;;;;;;4995197;28;20117;-89
2022/05/02 08:01:08;;;;;;;55.45;28.75;;;11.90;99.90;;;;;;4986326;28;20150;-89
2022/05/02 08:03:33;;;;;;;51.05;29.55;;;12.00;99.90;;;;;;4994520;28;20022;-89
2022/05/02 08:06:16;;;;;;;50.17;26.90;;;12.20;99.90;;;;;;4996798;28;20045;-89
2022/05/02 08:09:19;;;;;;;57.63;30.13;;;12.30;99.90;;;;;;4991931;28;20033;-89
2022/05/02 08:12:03;;;;;;;52.55;27.85;;;12.40;99.90;;;;;;4990709;28;20026;-89
2022/05/02 08:14:47;;;;;;;57.25;30.83;;;12.40;99.90;;;;;;4975456;28;20054;-87
2022/05/02 08:17:33;;;;;;;54.47;30.27;;;12.60;99.90;;;;;;4991488;28;20060;-89
2022/05/02 08:20:08;;;;;;;51.55;27.45;;;12.60;99.90;;;;;;4989457;28;20030;-89
2022/05/02 08:28:28;;;;;;;54.42;30.23;;;13.10;99.90;;;;;;4995033;28;20158;-91
2022/05/02 08:31:19;;;;;;;56.15;30.48;;;13.50;99.90;;;;;;5010577;28;20118;-89
2022/05/02 08:33:59;;;;;;;56.90;30.05;;;13.70;99.90;;;;;;5014871;28;20466;-88
2022/05/02 08:36:36;;;;;;;57.93;32.20;;;13.80;99.90;;;;;;4986161;28;20026;-88
2022/05/02 08:39:04;;;;;;;59.72;29.67;;;13.70;99.90;;;;;;4985978;28;20320;-88
2022/05/02 08:41:36;;;;;;;55.75;29.75;;;14.00;99.90;;;;;;4992915;28;20035;-88
2022/05/02 08:44:32;;;;;;;47.33;26.55;;;13.80;99.90;;;;;;5001097;28;20027;-88
2022/05/02 08:47:39;;;;;;;48.92;26.63;;;14.40;99.90;;;;;;4989329;28;20058;-88
2022/05/02 08:50:36;;;;;;;48.80;26.58;;;14.00;98.20;;;;;;4996910;28;20022;-88
2022/05/02 08:53:32;;;;;;;48.13;26.88;;;13.80;99.50;;;;;;4993728;28;20050;-88
2022/05/02 08:56:19;;;;;;;54.70;28.92;;;14.00;99.50;;;;;;4989557;28;20216;-89
2022/05/02 08:59:23;;;;;;;53.25;28.08;;;14.50;97.10;;;;;;4989847;28;20105;-89
2022/05/02 09:02:10;;;;;;;45.80;23.70;;;14.70;96.00;;;;;;4991612;28;20031;-89
2022/05/02 09:04:37;;;;;;;43.80;24.40;;;14.20;95.80;;;;;;4989862;28;20054;-89
2022/05/02 09:07:18;;;;;;;46.78;27.05;;;14.10;94.00;;;;;;4990526;28;20063;-88
2022/05/02 09:10:11;;;;;;;44.47;24.10;;;13.90;97.00;;;;;;4985763;28;20034;-88
2022/05/02 09:13:02;;;;;;;45.03;24.92;;;13.90;99.20;;;;;;4991216;28;20022;-88
2022/05/02 09:15:33;;;;;;;41.85;23.20;;;13.80;97.50;;;;;;4987319;28;20029;-89
2022/05/02 09:18:02;;;;;;;36.78;20.38;;;14.80;93.60;;;;;;4996189;28;20382;-89
2022/05/02 09:20:53;;;;;;;34.55;18.70;;;15.50;91.90;;;;;;4987628;28;20030;-88
2022/05/02 09:23:50;;;;;;;34.72;19.30;;;14.70;82.70;;;;;;5007407;28;20386;-89
2022/05/02 09:26:34;;;;;;;29.42;15.73;;;15.00;90.60;;;;;;4996073;28;20105;-89
2022/05/02 09:29:48;;;;;;;36.92;20.77;;;16.10;77.70;;;;;;4985501;28;20038;-89
2022/05/02 09:32:18;;;;;;;38.72;19.85;;;16.00;80.20;;;;;;4978651;28;20042;-89
2022/05/02 09:35:11;;;;;;;34.97;19.93;;;16.30;82.30;;;;;;5001965;28;20426;-89
2022/05/02 09:37:40;;;;;;;32.22;18.58;;;15.80;83.00;;;;;;4989522;28;20289;-89
2022/05/02 09:40:16;;;;;;;32.47;17.00;;;15.90;84.20;;;;;;4992359;28;20022;-89
2022/05/02 09:43:05;;;;;;;29.98;18.65;;;15.40;79.80;;;;;;4988442;28;20027;-89
2022/05/02 09:49:37;;;;;;;28.73;16.23;;;16.20;87.60;;;;;;4995544;28;20053;-87
2022/05/02 09:52:13;;;;;;;38.60;19.60;;;16.00;75.30;;;;;;4945055;28;20082;-89
2022/05/02 09:58:00;;;;;;;30.55;19.20;;;15.70;75.70;;;;;;4986359;28;20085;-88
2022/05/02 10:03:37;;;;;;;30.85;16.25;;;15.50;79.90;;;;;;4989978;28;20153;-88
2022/05/02 10:06:35;;;;;;;31.08;17.63;;;15.60;75.50;;;;;;4986131;28;20288;-88
2022/05/02 10:09:31;;;;;;;24.95;14.90;;;15.70;70.20;;;;;;4984276;28;20046;-89
2022/05/02 10:12:12;;;;;;;24.98;15.57;;;16.10;73.10;;;;;;4982402;28;20019;-89
2022/05/02 10:14:47;;;;;;;24.05;13.52;;;16.20;77.60;;;;;;4989264;28;20026;-88
2022/05/02 10:17:16;;;;;;;23.05;14.15;;;16.20;74.90;;;;;;4983972;28;20033;-89
2022/05/02 10:19:54;;;;;;;26.00;13.30;;;16.50;73.20;;;;;;5005251;28;20015;-91
2022/05/02 10:22:30;;;;;;;19.02;12.07;;;16.90;66.40;;;;;;4991038;28;20133;-91
2022/05/02 10:24:55;;;;;;;25.55;12.65;;;17.20;63.50;;;;;;4991216;28;20108;-90
2022/05/02 10:27:40;;;;;;;21.10;12.60;;;16.80;65.40;;;;;;4998154;28;20059;-90
2022/05/02 10:30:12;;;;;;;24.92;13.82;;;16.40;67.00;;;;;;4972472;28;20338;-90
2022/05/02 10:32:49;;;;;;;22.38;12.73;;;16.90;64.80;;;;;;4981938;28;20073;-90
2022/05/02 10:35:19;;;;;;;20.63;12.23;;;18.10;59.40;;;;;;5007526;28;20030;-90
2022/05/02 10:37:54;;;;;;;20.17;13.40;;;17.60;58.70;;;;;;4986532;28;20031;-92
2022/05/02 10:40:40;;;;;;;22.25;11.68;;;17.20;61.60;;;;;;5005912;28;20035;-90
2022/05/02 10:43:08;;;;;;;19.25;12.07;;;18.30;60.00;;;;;;4985348;28;20022;-92
2022/05/02 10:45:36;;;;;;;16.90;11.25;;;19.20;58.10;;;;;;4991145;28;20046;-90
2022/05/02 10:48:15;;;;;;;19.77;11.48;;;19.00;53.30;;;;;;4994099;28;20030;-90
2022/05/02 10:50:50;;;;;;;18.58;11.95;;;18.70;55.00;;;;;;4956186;28;20030;-90
2022/05/02 10:53:37;;;;;;;18.40;11.50;;;19.30;52.50;;;;;;4996576;28;20029;-90
2022/05/02 10:56:16;;;;;;;21.88;11.77;;;20.00;49.90;;;;;;4992099;28;20034;-91
2022/05/02 10:58:44;;;;;;;15.68;9.60;;;20.60;49.70;;;;;;4993179;28;20054;-89
2022/05/02 11:01:21;;;;;;;17.40;10.25;;;20.40;47.90;;;;;;4975071;28;20042;-90
2022/05/02 11:04:10;;;;;;;13.05;9.48;;;19.60;49.10;;;;;;5007854;28;20026;-90
2022/05/02 11:06:48;;;;;;;16.48;10.18;;;18.90;49.90;;;;;;4969677;28;20038;-90
2022/05/02 11:09:25;;;;;;;15.00;9.15;;;18.20;51.50;;;;;;5008410;28;20022;-88
2022/05/02 11:11:51;;;;;;;15.32;11.13;;;19.20;50.70;;;;;;4990360;28;20038;-89
2022/05/02 11:14:51;;;;;;;13.45;9.88;;;19.70;51.80;;;;;;4988401;28;20035;-89
2022/05/02 11:17:20;;;;;;;16.40;9.95;;;19.90;48.80;;;;;;4979323;28;20045;-88
2022/05/02 11:23:06;;;;;;;13.18;9.50;;;20.30;45.10;;;;;;4994196;28;20122;-88
2022/05/02 11:25:39;;;;;;;14.73;10.60;;;19.70;48.70;;;;;;5006859;28;20058;-89
2022/05/02 11:28:28;;;;;;;16.17;11.30;;;18.20;50.40;;;;;;4991979;28;20034;-88
2022/05/02 11:31:32;;;;;;;13.07;9.48;;;17.70;54.70;;;;;;4992326;28;20036;-89
2022/05/02 11:34:13;;;;;;;15.90;10.30;;;18.00;52.70;;;;;;5006868;28;20486;-89
2022/05/02 11:36:44;;;;;;;16.17;9.25;;;17.80;52.70;;;;;;4993942;28;20059;-89
2022/05/02 11:39:19;;;;;;;13.95;9.27;;;17.90;53.10;;;;;;4991315;28;20026;-89
2022/05/02 11:41:47;;;;;;;15.80;9.40;;;18.00;52.90;;;;;;4989044;28;20479;-88
2022/05/02 11:44:15;;;;;;;13.27;9.05;;;18.40;51.80;;;;;;4973257;28;20043;-89
2022/05/02 11:47:15;;;;;;;12.40;8.45;;;19.60;50.00;;;;;;4977180;28;20085;-89
2022/05/02 11:49:58;;;;;;;11.52;8.05;;;19.60;46.10;;;;;;5007878;28;20034;-89
2022/05/02 11:52:33;;;;;;;12.27;8.38;;;18.60;49.30;;;;;;5003626;28;20042;-89
2022/05/02 11:55:00;;;;;;;10.60;7.05;;;18.60;49.70;;;;;;4993817;28;20034;-89
2022/05/02 11:57:39;;;;;;;13.10;7.47;;;18.20;50.00;;;;;;4993364;28;20041;-88
2022/05/02 12:00:33;;;;;;;9.68;6.97;;;17.90;52.40;;;;;;5002828;28;20505;-89
2022/05/02 12:03:14;;;;;;;9.65;6.45;;;19.20;48.70;;;;;;4972566;28;20031;-89
2022/05/02 12:05:41;;;;;;;9.77;7.25;;;19.70;46.40;;;;;;4990025;28;20030;-90
2022/05/02 12:08:09;;;;;;;8.38;5.68;;;19.50;47.00;;;;;;5000630;28;20042;-89
2022/05/02 12:10:41;;;;;;;7.82;5.65;;;19.10;46.30;;;;;;4990365;28;20077;-88
2022/05/02 12:13:12;;;;;;;8.70;6.30;;;18.60;47.80;;;;;;4994358;28;20053;-88
2022/05/02 12:16:18;;;;;;;8.85;6.00;;;18.00;50.00;;;;;;4998895;28;20022;-88
2022/05/02 12:18:49;;;;;;;9.30;6.40;;;17.80;50.50;;;;;;4990569;28;20509;-89
2022/05/02 12:21:31;;;;;;;11.48;6.40;;;19.40;46.40;;;;;;4980338;28;20025;-90
2022/05/02 12:24:02;;;;;;;11.20;7.55;;;22.00;42.70;;;;;;5011252;28;20133;-89
2022/05/02 12:26:28;;;;;;;10.82;6.80;;;23.60;43.80;;;;;;4993771;28;20363;-90
2022/05/02 12:29:00;;;;;;;8.43;6.05;;;24.30;37.00;;;;;;4994923;28;20033;-90
2022/05/02 12:31:28;;;;;;;10.07;7.18;;;24.60;37.50;;;;;;4976814;28;20057;-89
2022/05/02 12:34:07;;;;;;;10.10;7.78;;;24.60;35.50;;;;;;4994734;28;20027;-89
2022/05/02 12:36:45;;;;;;;9.03;6.60;;;22.60;38.60;;;;;;5008535;28;20081;-89
2022/05/02 12:39:27;;;;;;;7.93;6.65;;;22.80;40.50;;;;;;4975392;28;20505;-89
2022/05/02 12:42:07;;;;;;;8.68;6.75;;;21.90;40.00;;;;;;4989777;28;20032;-89
2022/05/02 12:44:52;;;;;;;9.75;7.15;;;20.50;42.70;;;;;;4992808;28;20098;-89
2022/05/02 12:47:23;;;;;;;9.00;7.13;;;20.90;44.60;;;;;;4986621;28;20031;-89
2022/05/02 12:50:20;;;;;;;10.73;7.97;;;22.60;41.00;;;;;;4990304;28;20030;-89
2022/05/02 12:52:55;;;;;;;9.75;7.03;;;24.50;37.10;;;;;;4989770;28;20070;-88
2022/05/02 12:55:29;;;;;;;8.10;6.70;;;25.00;35.10;;;;;;4990801;28;20037;-89
2022/05/02 13:00:44;;;;;;;8.48;6.78;;;24.80;34.10;;;;;;4984951;28;20045;-89
2022/05/02 13:03:10;;;;;;;8.55;6.88;;;25.40;33.70;;;;;;4991695;28;20038;-89
2022/05/02 13:05:39;;;;;;;9.27;7.18;;;25.30;35.70;;;;;;4991313;28;20046;-89
2022/05/02 13:08:19;;;;;;;10.23;6.73;;;25.50;33.90;;;;;;4993914;28;20046;-88
2022/05/02 13:10:50;;;;;;;8.35;6.72;;;25.50;32.50;;;;;;4979636;28;20353;-88
2022/05/02 13:13:17;;;;;;;7.20;5.97;;;25.90;32.50;;;;;;4971826;28;20372;-88
2022/05/02 13:15:42;;;;;;;7.78;6.03;;;26.30;31.90;;;;;;4971797;28;20023;-87
2022/05/02 13:18:14;;;;;;;8.30;7.35;;;27.70;33.40;;;;;;4985694;28;20501;-88
2022/05/02 13:20:44;;;;;;;7.07;6.18;;;26.90;29.30;;;;;;4982106;28;20035;-87
2022/05/02 13:23:13;;;;;;;7.13;6.00;;;25.80;32.00;;;;;;4981060;28;20041;-88
2022/05/02 13:26:02;;;;;;;8.60;7.22;;;25.90;33.20;;;;;;4991178;28;20021;-88
2022/05/02 13:28:44;;;;;;;8.10;7.20;;;26.90;31.90;;;;;;4981021;28;20126;-88
2022/05/02 13:31:21;;;;;;;7.85;6.20;;;26.50;33.30;;;;;;4989966;28;20421;-88
2022/05/02 13:33:51;;;;;;;7.32;6.28;;;27.00;32.00;;;;;;5004736;28;20038;-88
2022/05/02 13:36:17;;;;;;;;;;;27.00;31.00;;;;;;4988146;28;20026;-88
2022/05/02 13:39:10;;;;;;;7.13;5.97;;;27.70;30.90;;;;;;4987937;28;20007;-88
2022/05/02 13:42:01;;;;;;;7.22;6.50;;;26.50;30.30;;;;;;4997991;28;20054;-89
2022/05/02 13:45:01;;;;;;;8.38;7.47;;;25.60;32.40;;;;;;4989162;28;20400;-87